NCAR-RAP Real-Time Weather Data

Output produced by METARs form (24 July 2017  08:50 UTC)
found at http://weather.rap.ucar.edu/surface/
 
Conditions at: KCOF observed 24 July 2017  07:58 UTC
Temperature: 26.5°C (80°F)
Dewpoint: 24.6°C (76°F) [RH = 89%]
Pressure (altimeter): 30.00 inches Hg (1016.0 mb)
[Sea-level pressure: 1016.3 mb]
Winds: from the WSW (240 degrees) at 6 MPH (5 knots; 2.6 m/s)
Visibility: 10 or more miles (16+ km)
Ceiling: at least 12,000 feet AGL
Clouds: sky clear below 12,000 feet AGL
Present Weather:
SOME DATA ABOVE MAY BE INACCURATE!!!
"$" is an indication the sensor requires maintenance
KCOF 240758Z AUTO 24005KT 10SM CLR 27/25 A3000 RMK AO2 SLP163 T02650246 $

Conditions at: KCOF observed 24 July 2017  06:58 UTC
Temperature: 26.6°C (80°F)
Dewpoint: 24.7°C (76°F) [RH = 89%]
Pressure (altimeter): 30.01 inches Hg (1016.3 mb)
[Sea-level pressure: 1016.7 mb]
Winds: from the SW (230 degrees) at 6 MPH (5 knots; 2.6 m/s)
Visibility: 10 or more miles (16+ km)
Ceiling: at least 12,000 feet AGL
Clouds: sky clear below 12,000 feet AGL
Present Weather:
SOME DATA ABOVE MAY BE INACCURATE!!!
"$" is an indication the sensor requires maintenance
KCOF 240658Z AUTO 23005KT 10SM CLR 27/25 A3001 RMK AO2 SLP167 T02660247 $

Conditions at: KCOF observed 24 July 2017  05:58 UTC
Temperature: 26.6°C (80°F)
Dewpoint: 24.9°C (77°F) [RH = 90%]
Pressure (altimeter): 30.03 inches Hg (1017.0 mb)
[Sea-level pressure: 1017.3 mb]
Winds: from the WSW (250 degrees) at 7 MPH (6 knots; 3.1 m/s)
Visibility: 10 or more miles (16+ km)
Ceiling: at least 12,000 feet AGL
Clouds: sky clear below 12,000 feet AGL
Present Weather:
SOME DATA ABOVE MAY BE INACCURATE!!!
"$" is an indication the sensor requires maintenance
KCOF 240558Z AUTO 25006KT 10SM CLR 27/25 A3003 RMK AO2 SLP173 T02660249 10268 20263 58005 $

Conditions at: KCOF observed 24 July 2017  04:58 UTC
Temperature: 26.6°C (80°F)
Dewpoint: 25.0°C (77°F) [RH = 91%]
Pressure (altimeter): 30.04 inches Hg (1017.4 mb)
[Sea-level pressure: 1017.7 mb]
Winds: from the SW (220 degrees) at 7 MPH (6 knots; 3.1 m/s)
Visibility: 10 or more miles (16+ km)
Ceiling: at least 12,000 feet AGL
Clouds: sky clear below 12,000 feet AGL
Present Weather:
SOME DATA ABOVE MAY BE INACCURATE!!!
"$" is an indication the sensor requires maintenance
KCOF 240458Z AUTO 22006KT 10SM CLR 27/25 A3004 RMK AO2 SLP177 T02660250 403170249 $

Conditions at: KCOF observed 24 July 2017  03:58 UTC
Temperature: 26.6°C (80°F)
Dewpoint: 24.9°C (77°F) [RH = 90%]
Pressure (altimeter): 30.05 inches Hg (1017.7 mb)
[Sea-level pressure: 1018.0 mb]
Winds: from the SSW (210 degrees) at 6 MPH (5 knots; 2.6 m/s)
Visibility: 10 or more miles (16+ km)
Ceiling: at least 12,000 feet AGL
Clouds: sky clear below 12,000 feet AGL
Present Weather:
SOME DATA ABOVE MAY BE INACCURATE!!!
"$" is an indication the sensor requires maintenance
KCOF 240358Z AUTO 21005KT 10SM CLR 27/25 A3005 RMK AO2 SLP180 T02660249 $

Conditions at: KCOF observed 24 July 2017  02:58 UTC
Temperature: 26.6°C (80°F)
Dewpoint: 24.8°C (77°F) [RH = 90%]
Pressure (altimeter): 30.04 inches Hg (1017.4 mb)
[Sea-level pressure: 1017.7 mb]
Winds: from the SSW (200 degrees) at 3 MPH (3 knots; 1.6 m/s)
Visibility: 10 or more miles (16+ km)
Ceiling: at least 12,000 feet AGL
Clouds: few clouds at 3800 feet AGL
Present Weather:
SOME DATA ABOVE MAY BE INACCURATE!!!
"$" is an indication the sensor requires maintenance
KCOF 240258Z AUTO 20003KT 10SM FEW038 27/25 A3004 RMK AO2 SLP177 T02660248 53012 $

Conditions at: KCOF observed 24 July 2017  02:43 UTC
Temperature: 27.0°C (81°F)
Dewpoint: 25.0°C (77°F) [RH = 89%]
Pressure (altimeter): 30.04 inches Hg (1017.4 mb)
[Sea-level pressure: 1017.7 mb]
Winds: from the WSW (240 degrees) at 3 MPH (3 knots; 1.6 m/s)
Visibility: 10 or more miles (16+ km)
Ceiling: at least 12,000 feet AGL
Clouds: sky clear below 12,000 feet AGL
Present Weather: automated observation with no human augmentation;
there may or may not be significant weather present at this time
KCOF 240243Z AUTO 24003KT 10SM CLR 27/25 A3004 RMK AO2 PRESRR SLP177

Conditions at: KCOF observed 24 July 2017  02:33 UTC
Temperature: 27.0°C (81°F)
Dewpoint: 25.0°C (77°F) [RH = 89%]
Pressure (altimeter): 30.02 inches Hg (1016.7 mb)
[Sea-level pressure: 1017.0 mb]
Winds: from the SSW (210 degrees) at 3 MPH (3 knots; 1.6 m/s)
Visibility: 8 miles (13 km)
Ceiling: at least 12,000 feet AGL
Clouds: sky clear below 12,000 feet AGL
Present Weather: automated observation with no human augmentation;
there may or may not be significant weather present at this time
KCOF 240233Z AUTO 21003KT 8SM R21/5500FT CLR 27/25 A3002 RMK AO2 SLP170

Conditions at: KCOF observed 24 July 2017  01:58 UTC
Temperature: 26.6°C (80°F)
Dewpoint: 24.9°C (77°F) [RH = 90%]
Pressure (altimeter): 29.99 inches Hg (1015.7 mb)
[Sea-level pressure: 1016.0 mb]
Winds: from the S (170 degrees) at 5 MPH (4 knots; 2.1 m/s)
Visibility: 10 or more miles (16+ km)
Ceiling: at least 12,000 feet AGL
Clouds: sky clear below 12,000 feet AGL
Present Weather:
SOME DATA ABOVE MAY BE INACCURATE!!!
"$" is an indication the sensor requires maintenance
KCOF 240158Z AUTO 17004KT 10SM CLR 27/25 A2999 RMK AO2 SLP160 T02660249 $

Conditions at: KCOF observed 24 July 2017  00:58 UTC
Temperature: 26.3°C (79°F)
Dewpoint: 24.2°C (76°F) [RH = 88%]
Pressure (altimeter): 29.99 inches Hg (1015.7 mb)
[Sea-level pressure: 1016.0 mb]
Winds: from the SSE (160 degrees) at 5 MPH (4 knots; 2.1 m/s)
Visibility: 10 or more miles (16+ km)
Ceiling: at least 12,000 feet AGL
Clouds: sky clear below 12,000 feet AGL
Present Weather:
SOME DATA ABOVE MAY BE INACCURATE!!!
"$" is an indication the sensor requires maintenance
KCOF 240058Z AUTO 16004KT 10SM CLR 26/24 A2999 RMK AO2 SLP160 T02630242 $

Conditions at: KCOF observed 23 July 2017  23:58 UTC
Temperature: 26.7°C (80°F)
Dewpoint: 23.8°C (75°F) [RH = 84%]
Pressure (altimeter): 30.01 inches Hg (1016.3 mb)
[Sea-level pressure: 1016.7 mb]
Winds: calm
Visibility: 10 or more miles (16+ km)
Ceiling: at least 12,000 feet AGL
Clouds: sky clear below 12,000 feet AGL
Present Weather:
SOME DATA ABOVE MAY BE INACCURATE!!!
"$" is an indication the sensor requires maintenance
KCOF 232358Z AUTO 00000KT 10SM CLR 27/24 A3001 RMK AO2 SLP167 60001 T02670238 10270 20252 55012 $

Conditions at: KCOF observed 23 July 2017  22:58 UTC
Temperature: 26.9°C (80°F)
Dewpoint: 23.8°C (75°F) [RH = 83%]
Pressure (altimeter): 30.01 inches Hg (1016.3 mb)
[Sea-level pressure: 1016.7 mb]
Winds: from the W (270 degrees) at 3 MPH (3 knots; 1.6 m/s)
Visibility: 10 or more miles (16+ km)
Ceiling: at least 12,000 feet AGL
Clouds: sky clear below 12,000 feet AGL
Present Weather:
SOME DATA ABOVE MAY BE INACCURATE!!!
"$" is an indication the sensor requires maintenance
KCOF 232258Z AUTO 27003KT 10SM CLR 27/24 A3001 RMK AO2 SLP167 T02690238 $

Conditions at: KCOF observed 23 July 2017  21:58 UTC
Temperature: 25.9°C (79°F)
Dewpoint: 24.3°C (76°F) [RH = 91%]
Pressure (altimeter): 30.01 inches Hg (1016.3 mb)
[Sea-level pressure: 1016.7 mb]
Winds: from the E (90 degrees) at 6 MPH (5 knots; 2.6 m/s)
Visibility: 10 or more miles (16+ km)
Ceiling: at least 12,000 feet AGL
Clouds: sky clear below 12,000 feet AGL
Present Weather:
SOME DATA ABOVE MAY BE INACCURATE!!!
"$" is an indication the sensor requires maintenance
KCOF 232158Z AUTO 09005KT 10SM CLR 26/24 A3001 RMK AO2 RAE09DZB09E15 TSE00 SLP167 P0000 T02590243 $

Conditions at: KCOF observed 23 July 2017  21:15 UTC
Temperature: 25.0°C (77°F)
Dewpoint: 24.0°C (75°F) [RH = 94%]
Pressure (altimeter): 30.03 inches Hg (1017.0 mb)
[Sea-level pressure: 1017.3 mb]
Winds: calm
Visibility: 10 or more miles (16+ km)
Ceiling: at least 12,000 feet AGL
Clouds: few clouds at 2600 feet AGL
Present Weather: automated observation with no human augmentation;
there may or may not be significant weather present at this time
KCOF 232115Z AUTO 00000KT 10SM FEW026 25/24 A3003 RMK AO2 RAE09DZB09E15 TSE00 SLP173

Conditions at: KCOF observed 23 July 2017  21:00 UTC
Temperature: 26.0°C (79°F)
Dewpoint: 24.0°C (75°F) [RH = 89%]
Pressure (altimeter): 30.04 inches Hg (1017.4 mb)
[Sea-level pressure: 1017.7 mb]
Winds: from the NW (310 degrees) at 8 MPH (7 knots; 3.6 m/s)
Visibility: 10 or more miles (16+ km)
Ceiling: at least 12,000 feet AGL
Clouds: few clouds at 2600 feet AGL
Present Weather: -RA  (light rain)
SOME DATA ABOVE MAY BE INACCURATE!!!
"$" is an indication the sensor requires maintenance
KCOF 232100Z AUTO 31007KT 10SM -RA FEW026 26/24 A3004 RMK AO2 TSE00 SLP177 $

Conditions at: KCOF observed 23 July 2017  20:58 UTC
Temperature: 26.3°C (79°F)
Dewpoint: 23.6°C (74°F) [RH = 85%]
Pressure (altimeter): 30.04 inches Hg (1017.4 mb)
[Sea-level pressure: 1017.7 mb]
Winds: from the NW (310 degrees) at 12 MPH (10 knots; 5.2 m/s)
Visibility: 10 or more miles (16+ km)
Ceiling: at least 12,000 feet AGL
Clouds: few clouds at 2600 feet AGL
Present Weather: -TSRA  (light rain associated with thunderstorm(s))
SOME DATA ABOVE MAY BE INACCURATE!!!
"$" is an indication the sensor requires maintenance
KCOF 232058Z AUTO 31010KT 10SM -TSRA FEW026 26/24 A3004 RMK AO2 RAB46 TSB34 SLP177 P0000 60001 T02630236 58007 $

Conditions at: KCOF observed 23 July 2017  20:46 UTC
Temperature: 27.0°C (81°F)
Dewpoint: 23.0°C (73°F) [RH = 79%]
Pressure (altimeter): 30.05 inches Hg (1017.7 mb)
[Sea-level pressure: 1018.0 mb]
Winds: from the NW (310 degrees) at 10 MPH (9 knots; 4.7 m/s)
Visibility: 10 or more miles (16+ km)
Ceiling: at least 12,000 feet AGL
Clouds: sky clear below 12,000 feet AGL
Present Weather: -TSRA  (light rain associated with thunderstorm(s))
KCOF 232046Z AUTO 31009KT 10SM -TSRA CLR 27/23 A3005 RMK AO2 RAB46 TSB34 SLP180

Conditions at: KCOF observed 23 July 2017  20:34 UTC
Temperature: 27.0°C (81°F)
Dewpoint: 23.0°C (73°F) [RH = 79%]
Pressure (altimeter): 30.05 inches Hg (1017.7 mb)
[Sea-level pressure: 1018.0 mb]
Winds: from the NW (320 degrees) at 9 MPH (8 knots; 4.2 m/s)
Visibility: 10 or more miles (16+ km)
Ceiling: at least 12,000 feet AGL
Clouds: sky clear below 12,000 feet AGL
Present Weather: TS  (thunderstorm)
KCOF 232034Z AUTO 32008KT 10SM TS CLR 27/23 A3005 RMK AO2 TSB34 SLP180

Conditions at: KCOF observed 23 July 2017  19:58 UTC
Temperature: 26.7°C (80°F)
Dewpoint: 22.9°C (73°F) [RH = 80%]
Pressure (altimeter): 30.03 inches Hg (1017.0 mb)
[Sea-level pressure: 1017.3 mb]
Winds: from the NNE (30 degrees) at 9 MPH (8 knots; 4.2 m/s)
Visibility: 10 or more miles (16+ km)
Ceiling: at least 12,000 feet AGL
Clouds: sky clear below 12,000 feet AGL
Present Weather: VCTS  (thunderstorm in vicinity)
SOME DATA ABOVE MAY BE INACCURATE!!!
"$" is an indication the sensor requires maintenance
KCOF 231958Z AUTO 03008KT 10SM VCTS CLR 27/23 A3003 RMK AO2 SLP173 T02670229 $

Conditions at: KCOF observed 23 July 2017  18:58 UTC
Temperature: 25.9°C (79°F)
Dewpoint: 23.8°C (75°F) [RH = 88%]
Pressure (altimeter): 30.06 inches Hg (1018.0 mb)
[Sea-level pressure: 1018.4 mb]
Winds: from the NE (40 degrees) at 6 MPH (5 knots; 2.6 m/s)
Visibility: 10 or more miles (16+ km)
Ceiling: at least 12,000 feet AGL
Clouds: few clouds at 2700 feet AGL
Present Weather:
SOME DATA ABOVE MAY BE INACCURATE!!!
"$" is an indication the sensor requires maintenance
KCOF 231858Z AUTO 04005KT 10SM FEW027 26/24 A3006 RMK AO2 LTG DSNT NE-E RAE14 TSE28 SLP184 P0001 T02590238 $

Conditions at: KCOF observed 23 July 2017  18:28 UTC
Temperature: 25.0°C (77°F)
Dewpoint: 23.0°C (73°F) [RH = 89%]
Pressure (altimeter): 30.07 inches Hg (1018.4 mb)
[Sea-level pressure: 1018.7 mb]
Winds: from the NNE (20 degrees) at 10 MPH (9 knots; 4.7 m/s)
Visibility: 10 or more miles (16+ km)
Ceiling: at least 12,000 feet AGL
Clouds: scattered clouds at 3000 feet AGL
Present Weather: VCTS  (thunderstorm in vicinity)
KCOF 231828Z AUTO 02009KT 10SM VCTS SCT030 25/23 A3007 RMK AO2 RAE14 TSE28 SLP187

Conditions at: KCOF observed 23 July 2017  18:14 UTC
Temperature: 26.0°C (79°F)
Dewpoint: 23.0°C (73°F) [RH = 84%]
Pressure (altimeter): 30.06 inches Hg (1018.0 mb)
[Sea-level pressure: 1018.4 mb]
Winds: from the NNE (30 degrees) at 8 MPH (7 knots; 3.6 m/s)
Visibility: 10 or more miles (16+ km)
Ceiling: at least 12,000 feet AGL
Clouds: few clouds at 2900 feet AGL
Present Weather: TS  (thunderstorm)
KCOF 231814Z AUTO 03007KT 10SM TS FEW029 26/23 A3006 RMK AO2 RAE14 SLP184

Conditions at: KCOF observed 23 July 2017  17:58 UTC
Temperature: 27.5°C (82°F)
Dewpoint: 25.0°C (77°F) [RH = 86%]
Pressure (altimeter): 30.06 inches Hg (1018.0 mb)
[Sea-level pressure: 1018.4 mb]
Winds: from the NW (310 degrees) at 15 MPH (13 knots; 6.8 m/s)
Visibility: 4 miles (6 km)
Ceiling: 3500 feet AGL
Clouds: scattered clouds at 2900 feet AGL
broken clouds at 3500 feet AGL
Present Weather: -TSRA  (light rain associated with thunderstorm(s))
SOME DATA ABOVE MAY BE INACCURATE!!!
"$" is an indication the sensor requires maintenance
KCOF 231758Z AUTO 31013KT 4SM -TSRA SCT029 BKN035 28/25 A3006 RMK AO2 RAB44 TSB32 SLP184 P0004 60004 T02750250 10317 20262 50002 $

Conditions at: KCOF observed 23 July 2017  17:49 UTC
Temperature: 28.0°C (82°F)
Dewpoint: 25.0°C (77°F) [RH = 84%]
Pressure (altimeter): 30.06 inches Hg (1018.0 mb)
[Sea-level pressure: 1018.4 mb]
Winds: from the W (270 degrees) at 6 MPH (5 knots; 2.6 m/s)
gusting to 16 MPH (14 knots; 7.3 m/s)
Visibility: 2.00 miles (3.22 km)
Ceiling: 3100 feet AGL
Clouds: broken clouds at 3100 feet AGL
Present Weather: +TSRA  (heavy rain associated with thunderstorm(s))
SOME DATA ABOVE MAY BE INACCURATE!!!
"$" is an indication the sensor requires maintenance
KCOF 231749Z AUTO 27005G14KT 2SM +TSRA BKN031 28/25 A3006 RMK AO2 VIS 2V10 RAB44 TSB32 SLP184 $

Conditions at: KCOF observed 23 July 2017  17:44 UTC
Temperature: 29.0°C (84°F)
Dewpoint: 25.0°C (77°F) [RH = 79%]
Pressure (altimeter): 30.05 inches Hg (1017.7 mb)
[Sea-level pressure: 1018.0 mb]
Winds: from the SW (230 degrees) at 15 MPH (13 knots; 6.8 m/s)
Visibility: 6 miles (10 km)
Ceiling: 3300 feet AGL
Clouds: few clouds at 2600 feet AGL
broken clouds at 3300 feet AGL
broken clouds at 4000 feet AGL
Present Weather: TSRA  (rain associated with thunderstorm(s))
KCOF 231744Z AUTO 23013KT 6SM TSRA FEW026 BKN033 BKN040 29/25 A3005 RMK AO2 RAB44 TSB32 SLP180

Conditions at: KCOF observed 23 July 2017  17:32 UTC
Temperature: 30.0°C (86°F)
Dewpoint: 25.0°C (77°F) [RH = 75%]
Pressure (altimeter): 30.05 inches Hg (1017.7 mb)
[Sea-level pressure: 1018.0 mb]
Winds: from the ESE (110 degrees) at 3 MPH (3 knots; 1.6 m/s)
Visibility: 10 or more miles (16+ km)
Ceiling: at least 12,000 feet AGL
Clouds: scattered clouds at 3300 feet AGL
scattered clouds at 9500 feet AGL
Present Weather: TS  (thunderstorm)
KCOF 231732Z AUTO 11003KT 10SM TS SCT033 SCT095 30/25 A3005 RMK AO2 TSB32 SLP180

Conditions at: KCOF observed 23 July 2017  16:58 UTC
Temperature: 31.6°C (89°F)
Dewpoint: 24.5°C (76°F) [RH = 66%]
Pressure (altimeter): 30.06 inches Hg (1018.0 mb)
[Sea-level pressure: 1018.4 mb]
Winds: from the SW (230 degrees) at 8 MPH (7 knots; 3.6 m/s)
Visibility: 9 miles (14 km)
Ceiling: at least 12,000 feet AGL
Clouds: sky clear below 12,000 feet AGL
Present Weather: VCTS  (thunderstorm in vicinity)
SOME DATA ABOVE MAY BE INACCURATE!!!
"$" is an indication the sensor requires maintenance
KCOF 231658Z AUTO 23007KT 9SM VCTS CLR 32/25 A3006 RMK AO2 DZB02E06 SLP184 P0000 T03160245 $

Conditions at: KCOF observed 23 July 2017  15:58 UTC
Temperature: 30.2°C (86°F)
Dewpoint: 24.7°C (76°F) [RH = 73%]
Pressure (altimeter): 30.06 inches Hg (1018.0 mb)
[Sea-level pressure: 1018.4 mb]
Winds: from the SSW (210 degrees) at 8 MPH (7 knots; 3.6 m/s)
Visibility: 10 or more miles (16+ km)
Ceiling: at least 12,000 feet AGL
Clouds: sky clear below 12,000 feet AGL
Present Weather:
SOME DATA ABOVE MAY BE INACCURATE!!!
"$" is an indication the sensor requires maintenance
KCOF 231558Z AUTO 21007KT 10SM CLR 30/25 A3006 RMK AO2 SLP184 T03020247 $

Conditions at: KCOF observed 23 July 2017  14:58 UTC
Temperature: 29.1°C (84°F)
Dewpoint: 24.7°C (76°F) [RH = 77%]
Pressure (altimeter): 30.06 inches Hg (1018.0 mb)
[Sea-level pressure: 1018.4 mb]
Winds: from the SW (230 degrees) at 8 MPH (7 knots; 3.6 m/s)
Visibility: 10 or more miles (16+ km)
Ceiling: at least 12,000 feet AGL
Clouds: sky clear below 12,000 feet AGL
Present Weather:
SOME DATA ABOVE MAY BE INACCURATE!!!
"$" is an indication the sensor requires maintenance
KCOF 231458Z AUTO 23007KT 10SM CLR 29/25 A3006 RMK AO2 SLP184 T02910247 50006 $

Conditions at: KCOF observed 23 July 2017  13:58 UTC
Temperature: 27.9°C (82°F)
Dewpoint: 24.2°C (76°F) [RH = 80%]
Pressure (altimeter): 30.06 inches Hg (1018.0 mb)
[Sea-level pressure: 1018.4 mb]
Winds: from the SSW (210 degrees) at 7 MPH (6 knots; 3.1 m/s)
Visibility: 10 or more miles (16+ km)
Ceiling: at least 12,000 feet AGL
Clouds: sky clear below 12,000 feet AGL
Present Weather:
SOME DATA ABOVE MAY BE INACCURATE!!!
"$" is an indication the sensor requires maintenance
KCOF 231358Z AUTO 21006KT 10SM CLR 28/24 A3006 RMK AO2 SLP184 T02790242 $

Conditions at: KCOF observed 23 July 2017  12:58 UTC
Temperature: 26.9°C (80°F)
Dewpoint: 24.0°C (75°F) [RH = 84%]
Pressure (altimeter): 30.05 inches Hg (1017.7 mb)
[Sea-level pressure: 1018.0 mb]
Winds: from the SSW (200 degrees) at 5 MPH (4 knots; 2.1 m/s)
Visibility: 10 or more miles (16+ km)
Ceiling: at least 12,000 feet AGL
Clouds: sky clear below 12,000 feet AGL
Present Weather:
SOME DATA ABOVE MAY BE INACCURATE!!!
"$" is an indication the sensor requires maintenance
KCOF 231258Z AUTO 20004KT 10SM CLR 27/24 A3005 RMK AO2 SLP180 T02690240 $

Conditions at: KCOF observed 23 July 2017  11:58 UTC
Temperature: 26.2°C (79°F)
Dewpoint: 23.4°C (74°F) [RH = 85%]
Pressure (altimeter): 30.04 inches Hg (1017.4 mb)
[Sea-level pressure: 1017.7 mb]
Winds: from the SSW (210 degrees) at 6 MPH (5 knots; 2.6 m/s)
Visibility: 10 or more miles (16+ km)
Ceiling: at least 12,000 feet AGL
Clouds: sky clear below 12,000 feet AGL
Present Weather:
SOME DATA ABOVE MAY BE INACCURATE!!!
"$" is an indication the sensor requires maintenance
KCOF 231158Z AUTO 21005KT 10SM CLR 26/23 A3004 RMK AO2 SLP177 70147 T02620234 10262 20249 52009 $

Conditions at: KCOF observed 23 July 2017  10:58 UTC
Temperature: 25.2°C (77°F)
Dewpoint: 23.3°C (74°F) [RH = 89%]
Pressure (altimeter): 30.04 inches Hg (1017.4 mb)
[Sea-level pressure: 1017.7 mb]
Winds: from the SW (220 degrees) at 7 MPH (6 knots; 3.1 m/s)
Visibility: 10 or more miles (16+ km)
Ceiling: at least 12,000 feet AGL
Clouds: sky clear below 12,000 feet AGL
Present Weather:
SOME DATA ABOVE MAY BE INACCURATE!!!
"$" is an indication the sensor requires maintenance
KCOF 231058Z AUTO 22006KT 10SM CLR 25/23 A3004 RMK AO2 SLP177 T02520233 $

Conditions at: KCOF observed 23 July 2017  09:58 UTC
Temperature: 25.0°C (77°F)
Dewpoint: 23.3°C (74°F) [RH = 90%]
Pressure (altimeter): 30.02 inches Hg (1016.7 mb)
[Sea-level pressure: 1017.0 mb]
Winds: from the SSW (210 degrees) at 6 MPH (5 knots; 2.6 m/s)
Visibility: 10 or more miles (16+ km)
Ceiling: at least 12,000 feet AGL
Clouds: sky clear below 12,000 feet AGL
Present Weather:
SOME DATA ABOVE MAY BE INACCURATE!!!
"$" is an indication the sensor requires maintenance
KCOF 230958Z AUTO 21005KT 10SM CLR 25/23 A3002 RMK AO2 SLP170 T02500233 $

Conditions at: KCOF observed 23 July 2017  08:58 UTC
Temperature: 24.9°C (77°F)
Dewpoint: 23.4°C (74°F) [RH = 91%]
Pressure (altimeter): 30.01 inches Hg (1016.3 mb)
[Sea-level pressure: 1016.7 mb]
Winds: from the SSW (200 degrees) at 5 MPH (4 knots; 2.1 m/s)
Visibility: 10 or more miles (16+ km)
Ceiling: at least 12,000 feet AGL
Clouds: sky clear below 12,000 feet AGL
Present Weather:
SOME DATA ABOVE MAY BE INACCURATE!!!
"$" is an indication the sensor requires maintenance
KCOF 230858Z AUTO 20004KT 10SM CLR 25/23 A3001 RMK AO2 SLP167 T02490234 57012 $

Conditions at: KCOF observed 23 July 2017  07:58 UTC
Temperature: 25.1°C (77°F)
Dewpoint: 24.4°C (76°F) [RH = 96%]
Pressure (altimeter): 30.02 inches Hg (1016.7 mb)
[Sea-level pressure: 1017.0 mb]
Winds: from the SSW (210 degrees) at 6 MPH (5 knots; 2.6 m/s)
Visibility: 10 or more miles (16+ km)
Ceiling: at least 12,000 feet AGL
Clouds: sky clear below 12,000 feet AGL
Present Weather:
SOME DATA ABOVE MAY BE INACCURATE!!!
"$" is an indication the sensor requires maintenance
KCOF 230758Z AUTO 21005KT 10SM CLR 25/24 A3002 RMK AO2 SLP170 T02510244 $

Conditions at: KCOF observed 23 July 2017  06:58 UTC
Temperature: 25.2°C (77°F)
Dewpoint: 24.5°C (76°F) [RH = 96%]
Pressure (altimeter): 30.04 inches Hg (1017.4 mb)
[Sea-level pressure: 1017.7 mb]
Winds: from the SSW (200 degrees) at 6 MPH (5 knots; 2.6 m/s)
Visibility: 10 or more miles (16+ km)
Ceiling: at least 12,000 feet AGL
Clouds: sky clear below 12,000 feet AGL
Present Weather:
SOME DATA ABOVE MAY BE INACCURATE!!!
"$" is an indication the sensor requires maintenance
KCOF 230658Z AUTO 20005KT 10SM CLR 25/25 A3004 RMK AO2 SLP177 T02520245 $

Conditions at: KCOF observed 23 July 2017  05:58 UTC
Temperature: 25.2°C (77°F)
Dewpoint: 24.4°C (76°F) [RH = 95%]
Pressure (altimeter): 30.05 inches Hg (1017.7 mb)
[Sea-level pressure: 1018.0 mb]
Winds: from the S (190 degrees) at 5 MPH (4 knots; 2.1 m/s)
Visibility: 10 or more miles (16+ km)
Ceiling: at least 12,000 feet AGL
Clouds: sky clear below 12,000 feet AGL
Present Weather:
SOME DATA ABOVE MAY BE INACCURATE!!!
"$" is an indication the sensor requires maintenance
KCOF 230558Z AUTO 19004KT 10SM CLR 25/24 A3005 RMK AO2 SLP180 T02520244 10254 20246 58002 $

Conditions at: KCOF observed 23 July 2017  04:58 UTC
Temperature: 25.2°C (77°F)
Dewpoint: 24.5°C (76°F) [RH = 96%]
Pressure (altimeter): 30.06 inches Hg (1018.0 mb)
[Sea-level pressure: 1018.4 mb]
Winds: calm
Visibility: 10 or more miles (16+ km)
Ceiling: at least 12,000 feet AGL
Clouds: sky clear below 12,000 feet AGL
Present Weather:
SOME DATA ABOVE MAY BE INACCURATE!!!
"$" is an indication the sensor requires maintenance
KCOF 230458Z AUTO 00000KT 10SM CLR 25/25 A3006 RMK AO2 SLP184 T02520245 403120233 $

Conditions at: KCOF observed 23 July 2017  03:58 UTC
Temperature: 25.1°C (77°F)
Dewpoint: 24.4°C (76°F) [RH = 96%]
Pressure (altimeter): 30.06 inches Hg (1018.0 mb)
[Sea-level pressure: 1018.4 mb]
Winds: from the SSW (200 degrees) at 3 MPH (3 knots; 1.6 m/s)
Visibility: 10 or more miles (16+ km)
Ceiling: at least 12,000 feet AGL
Clouds: sky clear below 12,000 feet AGL
Present Weather:
SOME DATA ABOVE MAY BE INACCURATE!!!
"$" is an indication the sensor requires maintenance
KCOF 230358Z AUTO 20003KT 10SM CLR 25/24 A3006 RMK AO2 SLP184 T02510244 $

Conditions at: KCOF observed 22 July 2017  22:58 UTC
Temperature: 24.3°C (76°F)
Dewpoint: 22.2°C (72°F) [RH = 88%]
Pressure (altimeter): 30.05 inches Hg (1017.7 mb)
[Sea-level pressure: 1018.0 mb]
Winds: from the WNW (300 degrees) at 5 MPH (4 knots; 2.1 m/s)
Visibility: 10 or more miles (16+ km)
Ceiling: at least 12,000 feet AGL
Clouds: sky clear below 12,000 feet AGL
Present Weather:
SOME DATA ABOVE MAY BE INACCURATE!!!
"$" is an indication the sensor requires maintenance
KCOF 222258Z AUTO 30004KT 10SM CLR 24/22 A3005 RMK AO2 RAB2158 SLP180 P0004 T02430222 $

Conditions at: KCOF observed 22 July 2017  21:58 UTC
Temperature: 23.7°C (75°F)
Dewpoint: 22.6°C (73°F) [RH = 94%]
Pressure (altimeter): 30.08 inches Hg (1018.7 mb)
[Sea-level pressure: 1019.0 mb]
Winds: calm
Visibility: 9 miles (14 km)
Ceiling: at least 12,000 feet AGL
Clouds: sky clear below 12,000 feet AGL
Present Weather:
SOME DATA ABOVE MAY BE INACCURATE!!!
"$" is an indication the sensor requires maintenance
KCOF 222158Z AUTO 00000KT 9SM CLR 24/23 A3008 RMK AO2 RAE03RAB11E27DZB27E33RAB33 TSE06TSB12E27TSB37E52 SLP190 P0002 T02370226 $

Conditions at: KCOF observed 22 July 2017  21:52 UTC
Temperature: 24.0°C (75°F)
Dewpoint: 23.0°C (73°F) [RH = 94%]
Pressure (altimeter): 30.08 inches Hg (1018.7 mb)
[Sea-level pressure: 1019.0 mb]
Winds: calm
Visibility: 10 or more miles (16+ km)
Ceiling: at least 12,000 feet AGL
Clouds: sky clear below 12,000 feet AGL
Present Weather: automated observation with no human augmentation;
there may or may not be significant weather present at this time
KCOF 222152Z AUTO 00000KT 10SM CLR 24/23 A3008 RMK AO2 LTG DSNT SE RAE03RAB11E27DZB27E33RAB33 TSE06TSB12E27TSB37E52 SLP190

Conditions at: KCOF observed 22 July 2017  21:37 UTC
Temperature: 24.0°C (75°F)
Dewpoint: 23.0°C (73°F) [RH = 94%]
Pressure (altimeter): 30.07 inches Hg (1018.4 mb)
[Sea-level pressure: 1018.7 mb]
Winds: from the SSE (160 degrees) at 5 MPH (4 knots; 2.1 m/s)
Visibility: 10 or more miles (16+ km)
Ceiling: at least 12,000 feet AGL
Clouds: sky clear below 12,000 feet AGL
Present Weather: -TSRA  (light rain associated with thunderstorm(s))
KCOF 222137Z AUTO 16004KT 10SM -TSRA CLR 24/23 A3007 RMK AO2 RAE03RAB11E27DZB27E33RAB33 TSE06TSB12E27TSB37 SLP187

Conditions at: KCOF observed 22 July 2017  21:34 UTC
Temperature: 24.0°C (75°F)
Dewpoint: 23.0°C (73°F) [RH = 94%]
Pressure (altimeter): 30.07 inches Hg (1018.4 mb)
[Sea-level pressure: 1018.7 mb]
Winds: calm
Visibility: 10 or more miles (16+ km)
Ceiling: at least 12,000 feet AGL
Clouds: sky clear below 12,000 feet AGL
Present Weather:
SOME DATA ABOVE MAY BE INACCURATE!!!
"$" is an indication the sensor requires maintenance
KCOF 222134Z AUTO 00000KT 10SM CLR 24/23 A3007 RMK AO2 LTG DSNT SW RAE03RAB11E27DZB27E33RAB33 TSE06TSB12E27 SLP187 $

Conditions at: KCOF observed 22 July 2017  21:27 UTC
Temperature: 24.0°C (75°F)
Dewpoint: 23.0°C (73°F) [RH = 94%]
Pressure (altimeter): 30.06 inches Hg (1018.0 mb)
[Sea-level pressure: 1018.4 mb]
Winds: from the SE (130 degrees) at 3 MPH (3 knots; 1.6 m/s)
Visibility: 10 or more miles (16+ km)
Ceiling: at least 12,000 feet AGL
Clouds: sky clear below 12,000 feet AGL
Present Weather: VCTS -DZ  (thunderstorm in vicinity, light drizzle)
KCOF 222127Z AUTO 13003KT 10SM -DZ VCTS CLR 24/23 A3006 RMK AO2 RAE03RAB11E27DZB27 TSE06TSB12E27 SLP184

Conditions at: KCOF observed 22 July 2017  21:12 UTC
Temperature: 24.0°C (75°F)
Dewpoint: 23.0°C (73°F) [RH = 94%]
Pressure (altimeter): 30.06 inches Hg (1018.0 mb)
[Sea-level pressure: 1018.4 mb]
Winds: from the SE (140 degrees) at 5 MPH (4 knots; 2.1 m/s)
Visibility: 10 or more miles (16+ km)
Ceiling: at least 12,000 feet AGL
Clouds: sky clear below 12,000 feet AGL
Present Weather: -TSRA  (light rain associated with thunderstorm(s))
SOME DATA ABOVE MAY BE INACCURATE!!!
"$" is an indication the sensor requires maintenance
KCOF 222112Z AUTO 14004KT 10SM -TSRA CLR 24/23 A3006 RMK AO2 RAE03RAB11 TSE06TSB12 SLP184 $

Conditions at: KCOF observed 22 July 2017  21:11 UTC
Temperature: 24.0°C (75°F)
Dewpoint: 23.0°C (73°F) [RH = 94%]
Pressure (altimeter): 30.07 inches Hg (1018.4 mb)
[Sea-level pressure: 1018.7 mb]
Winds: from the SSE (150 degrees) at 5 MPH (4 knots; 2.1 m/s)
Visibility: 10 or more miles (16+ km)
Ceiling: at least 12,000 feet AGL
Clouds: sky clear below 12,000 feet AGL
Present Weather: VCTS -RA  (thunderstorm in vicinity, light rain)
SOME DATA ABOVE MAY BE INACCURATE!!!
"$" is an indication the sensor requires maintenance
KCOF 222111Z AUTO 15004KT 10SM -RA VCTS CLR 24/23 A3007 RMK AO2 RAE03RAB11 TSE06 SLP187 $

Conditions at: KCOF observed 22 July 2017  21:06 UTC
Temperature: 23.0°C (73°F)
Dewpoint: 23.0°C (73°F) [RH = 100%]
Pressure (altimeter): 30.07 inches Hg (1018.4 mb)
[Sea-level pressure: 1018.7 mb]
Winds: from the SSE (160 degrees) at 6 MPH (5 knots; 2.6 m/s)
Visibility: 10 or more miles (16+ km)
Ceiling: at least 12,000 feet AGL
Clouds: few clouds at 6000 feet AGL
Present Weather: VCTS  (thunderstorm in vicinity)
SOME DATA ABOVE MAY BE INACCURATE!!!
"$" is an indication the sensor requires maintenance
KCOF 222106Z AUTO 16005KT 10SM VCTS FEW060 23/23 A3007 RMK AO2 RAE03 TSE06 SLP187 $

Conditions at: KCOF observed 22 July 2017  21:03 UTC
Temperature: 23.0°C (73°F)
Dewpoint: 23.0°C (73°F) [RH = 100%]
Pressure (altimeter): 30.07 inches Hg (1018.4 mb)
[Sea-level pressure: 1018.7 mb]
Winds: from the SSE (150 degrees) at 3 MPH (3 knots; 1.6 m/s)
Visibility: 10 or more miles (16+ km)
Ceiling: at least 12,000 feet AGL
Clouds: few clouds at 5500 feet AGL
Present Weather: TS  (thunderstorm)
KCOF 222103Z AUTO 15003KT 10SM TS FEW055 23/23 A3007 RMK AO2 RAE03 SLP187

Conditions at: KCOF observed 22 July 2017  20:58 UTC
Temperature: 23.5°C (74°F)
Dewpoint: 22.9°C (73°F) [RH = 96%]
Pressure (altimeter): 30.07 inches Hg (1018.4 mb)
[Sea-level pressure: 1018.7 mb]
Winds: calm
Visibility: 10 or more miles (16+ km)
Ceiling: at least 12,000 feet AGL
Clouds: scattered clouds at 5500 feet AGL
Present Weather: -TSRA  (light rain associated with thunderstorm(s))
SOME DATA ABOVE MAY BE INACCURATE!!!
"$" is an indication the sensor requires maintenance
KCOF 222058Z AUTO 00000KT 10SM -TSRA SCT055 24/23 A3007 RMK AO2 PK WND 26042/10 TSE40TSB51 SLP187 P0104 60140 T02350229 53001 $

Conditions at: KCOF observed 22 July 2017  20:51 UTC
Temperature: 23.0°C (73°F)
Dewpoint: 23.0°C (73°F) [RH = 100%]
Pressure (altimeter): 30.07 inches Hg (1018.4 mb)
[Sea-level pressure: 1018.7 mb]
Winds: from the SW (230 degrees) at 7 MPH (6 knots; 3.1 m/s)
Visibility: 9 miles (14 km)
Ceiling: at least 12,000 feet AGL
Clouds: scattered clouds at 4800 feet AGL
Present Weather: -TSRA  (light rain associated with thunderstorm(s))
KCOF 222051Z AUTO 23006KT 9SM -TSRA SCT048 23/23 A3007 RMK AO2 TSE40TSB51 SLP187

Conditions at: KCOF observed 22 July 2017  20:40 UTC
Temperature: 23.0°C (73°F)
Dewpoint: 23.0°C (73°F) [RH = 100%]
Pressure (altimeter): 30.08 inches Hg (1018.7 mb)
[Sea-level pressure: 1019.0 mb]
Winds: from the W (270 degrees) at 9 MPH (8 knots; 4.2 m/s)
Visibility: 4 miles (6 km)
Ceiling: 4400 feet AGL
Clouds: overcast cloud deck at 4400 feet AGL
Present Weather: VCTS RA BR  (thunderstorm in vicinity, rain, mist)
SOME DATA ABOVE MAY BE INACCURATE!!!
"$" is an indication the sensor requires maintenance
KCOF 222040Z AUTO 27008KT 4SM RA BR VCTS OVC044 23/23 A3008 RMK AO2 TSE40 CIG 026 RWY02 SLP190 $

Conditions at: KCOF observed 22 July 2017  20:38 UTC
Temperature: 24.0°C (75°F)
Dewpoint: 23.0°C (73°F) [RH = 94%]
Pressure (altimeter): 30.08 inches Hg (1018.7 mb)
[Sea-level pressure: 1019.0 mb]
Winds: from the W (270 degrees) at 12 MPH (10 knots; 5.2 m/s)
Visibility: 2.50 miles (4.02 km)
Ceiling: 3900 feet AGL
Clouds: overcast cloud deck at 3900 feet AGL
Present Weather: TSRA BR  (rain associated with thunderstorm(s), mist)
SOME DATA ABOVE MAY BE INACCURATE!!!
"$" is an indication the sensor requires maintenance
KCOF 222038Z AUTO 27010KT 2 1/2SM TSRA BR OVC039 24/23 A3008 RMK AO2 VIS 1V2 1/2 CIG 020 RWY02 SLP190 $

Conditions at: KCOF observed 22 July 2017  20:33 UTC
Temperature: 24.0°C (75°F)
Dewpoint: 23.0°C (73°F) [RH = 94%]
Pressure (altimeter): 30.09 inches Hg (1019.0 mb)
[Sea-level pressure: 1019.4 mb]
Winds: from the W (280 degrees) at 14 MPH (12 knots; 6.2 m/s)
Visibility: 1.25 miles (2.01 km)
Ceiling: 3300 feet AGL
Clouds: overcast cloud deck at 3300 feet AGL
Present Weather: +TSRA BR  (heavy rain associated with thunderstorm(s), mist)
SOME DATA ABOVE MAY BE INACCURATE!!!
"$" is an indication the sensor requires maintenance
KCOF 222033Z AUTO 28012KT 1 1/4SM +TSRA BR OVC033 24/23 A3009 RMK AO2 VIS 3/4V1 1/4 CIG 013 RWY02 SLP194 $

Conditions at: KCOF observed 22 July 2017  20:28 UTC
Temperature: 23.0°C (73°F)
Dewpoint: 23.0°C (73°F) [RH = 100%]
Pressure (altimeter): 30.10 inches Hg (1019.4 mb)
[Sea-level pressure: 1019.7 mb]
Winds: from the W (280 degrees) at 15 MPH (13 knots; 6.8 m/s)
Visibility: 1.00 miles (1.61 km)
Ceiling: 2600 feet AGL
Clouds: overcast cloud deck at 2600 feet AGL
Present Weather: +TSRA BR  (heavy rain associated with thunderstorm(s), mist)
SOME DATA ABOVE MAY BE INACCURATE!!!
"$" is an indication the sensor requires maintenance
KCOF 222028Z AUTO 28013KT 1SM R21/5000FT +TSRA BR OVC026 23/23 A3010 RMK AO2 VIS 1/4V1 CIG 014V026 SLP197 $

Conditions at: KCOF observed 22 July 2017  20:23 UTC
Temperature: 23.0°C (73°F)
Dewpoint: 23.0°C (73°F) [RH = 100%]
Pressure (altimeter): 30.10 inches Hg (1019.4 mb)
[Sea-level pressure: 1019.7 mb]
Winds: from the W (280 degrees) at 15 MPH (13 knots; 6.8 m/s)
gusting to 39 MPH (34 knots; 17.7 m/s)
Visibility: 0.50 miles (0.80 km)
Ceiling: indefinite ceiling with vertical visibility of 1800 feet AGL
Clouds: obscured sky
Present Weather: +TSRA FG  (heavy rain associated with thunderstorm(s), fog)
SOME DATA ABOVE MAY BE INACCURATE!!!
"$" is an indication the sensor requires maintenance
KCOF 222023Z AUTO 28013G34KT 1/2SM R21/4000FT +TSRA FG VV018 23/23 A3010 RMK AO2 CIG 010V018 SLP197 $

Conditions at: KCOF observed 22 July 2017  20:13 UTC
Temperature: 24.0°C (75°F)
Dewpoint: 23.0°C (73°F) [RH = 94%]
Pressure (altimeter): 30.10 inches Hg (1019.4 mb)
[Sea-level pressure: 1019.7 mb]
Winds: from the W (270 degrees) at 30 MPH (26 knots; 13.5 m/s)
gusting to 39 MPH (34 knots; 17.7 m/s)
Visibility: 0.25 miles (0.40 km)
Ceiling: indefinite ceiling with vertical visibility of 1000 feet AGL
Clouds: obscured sky
Present Weather: +TSRA FG  (heavy rain associated with thunderstorm(s), fog)
SOME DATA ABOVE MAY BE INACCURATE!!!
"$" is an indication the sensor requires maintenance
KCOF 222013Z AUTO 27026G34KT M1/4SM R21/0900FT +TSRA FG VV010 24/23 A3010 RMK AO2 CIG 008V010 CIG 002 RWY02 SLP197 $

Conditions at: KCOF observed 22 July 2017  20:03 UTC
Temperature: 25.0°C (77°F)
Dewpoint: 23.0°C (73°F) [RH = 89%]
Pressure (altimeter): 30.11 inches Hg (1019.7 mb)
[Sea-level pressure: 1020.0 mb]
Winds: from the W (260 degrees) at 25 MPH (22 knots; 11.4 m/s)
gusting to 38 MPH (33 knots; 17.2 m/s)
Visibility: 0.25 miles (0.40 km)
Ceiling: 800 feet AGL
Clouds: broken clouds at 800 feet AGL
broken clouds at 4600 feet AGL
broken clouds at 6000 feet AGL
Present Weather: +TSRA FG  (heavy rain associated with thunderstorm(s), fog)
SOME DATA ABOVE MAY BE INACCURATE!!!
"$" is an indication the sensor requires maintenance
KCOF 222003Z AUTO 26022G33KT M1/4SM R21/1000FT +TSRA FG BKN008 BKN046 BKN060 25/23 A3011 RMK AO2 CIG 008V046 SLP200 $

Conditions at: KCOF observed 22 July 2017  19:58 UTC
Temperature: 26.0°C (79°F)
Dewpoint: 24.0°C (75°F) [RH = 89%]
Pressure (altimeter): 30.12 inches Hg (1020.1 mb)
[Sea-level pressure: 1020.4 mb]
Winds: from the W (260 degrees) at 23 MPH (20 knots; 10.4 m/s)
gusting to 38 MPH (33 knots; 17.2 m/s)
Visibility: 0.25 miles (0.40 km)
Ceiling: 4600 feet AGL
Clouds: scattered clouds at 900 feet AGL
broken clouds at 4600 feet AGL
broken clouds at 6000 feet AGL
Present Weather: +TSRA FG  (heavy rain associated with thunderstorm(s), fog)
SOME DATA ABOVE MAY BE INACCURATE!!!
"$" is an indication the sensor requires maintenance
KCOF 221958Z AUTO 26020G33KT M1/4SM R21/1000FT +TSRA FG SCT009 BKN046 BKN060 26/24 A3012 RMK AO2 PK WND 25033/53 VIS M1/4V3 RAB50 TSB33 CIG 007 RWY02 SLP204 P0036 $

Conditions at: KCOF observed 22 July 2017  19:55 UTC
Temperature: 26.0°C (79°F)
Dewpoint: 24.0°C (75°F) [RH = 89%]
Pressure (altimeter): 30.12 inches Hg (1020.1 mb)
[Sea-level pressure: 1020.4 mb]
Winds: from the WSW (250 degrees) at 28 MPH (24 knots; 12.5 m/s)
gusting to 38 MPH (33 knots; 17.2 m/s)
Visibility: 0.25 miles (0.40 km)
Ceiling: 4600 feet AGL
Clouds: scattered clouds at 900 feet AGL
scattered clouds at 1900 feet AGL
broken clouds at 4600 feet AGL
Present Weather: +TSRA  (heavy rain associated with thunderstorm(s))
SOME DATA ABOVE MAY BE INACCURATE!!!
"$" is an indication the sensor requires maintenance
KCOF 221955Z AUTO 25024G33KT M1/4SM R21/3500FT +TSRA SCT009 SCT019 BKN046 26/24 A3012 RMK AO2 VIS M1/4V10 RAB50 TSB33 SLP204 $

Conditions at: KCOF observed 22 July 2017  19:50 UTC
Temperature: 29.0°C (84°F)
Dewpoint: 24.0°C (75°F) [RH = 74%]
Pressure (altimeter): 30.11 inches Hg (1019.7 mb)
[Sea-level pressure: 1020.0 mb]
Winds: from the W (260 degrees) at 29 MPH (25 knots; 13.0 m/s)
gusting to 37 MPH (32 knots; 16.6 m/s)
Visibility: 0.75 miles (1.21 km)
Ceiling: 6000 feet AGL
Clouds: few clouds at 1000 feet AGL
scattered clouds at 4600 feet AGL
broken clouds at 6000 feet AGL
Present Weather: +TSRA  (heavy rain associated with thunderstorm(s))
SOME DATA ABOVE MAY BE INACCURATE!!!
"$" is an indication the sensor requires maintenance
KCOF 221950Z AUTO 26025G32KT 3/4SM R21/P6000FT +TSRA FEW010 SCT046 BKN060 29/24 A3011 RMK AO2 VIS 3/4V10 VIS 1/2 RWY02 RAB50 TSB33 PRESRR SLP200 $

Conditions at: KCOF observed 22 July 2017  19:48 UTC
Temperature: 29.0°C (84°F)
Dewpoint: 25.0°C (77°F) [RH = 79%]
Pressure (altimeter): 30.09 inches Hg (1019.0 mb)
[Sea-level pressure: 1019.4 mb]
Winds: from the SW (230 degrees) at 26 MPH (23 knots; 12.0 m/s)
gusting to 33 MPH (29 knots; 15.1 m/s)
Visibility: 5 miles (8 km)
Ceiling: at least 12,000 feet AGL
Clouds: few clouds at 1900 feet AGL
scattered clouds at 6000 feet AGL
Present Weather: TS HZ  (thunderstorm, haze)
KCOF 221948Z AUTO 23023G29KT 5SM TS HZ FEW019 SCT060 29/25 A3009 RMK AO2 WSHFT 45 TSB33 PRESRR SLP194

Conditions at: KCOF observed 22 July 2017  19:45 UTC
Temperature: 30.0°C (86°F)
Dewpoint: 25.0°C (77°F) [RH = 75%]
Pressure (altimeter): 30.07 inches Hg (1018.4 mb)
[Sea-level pressure: 1018.7 mb]
Winds: from the S (180 degrees) at 22 MPH (19 knots; 9.9 m/s)
gusting to 33 MPH (29 knots; 15.1 m/s)
Visibility: 10 or more miles (16+ km)
Ceiling: at least 12,000 feet AGL
Clouds: few clouds at 4600 feet AGL
scattered clouds at 6000 feet AGL
Present Weather: TS  (thunderstorm)
KCOF 221945Z AUTO 18019G29KT 10SM TS FEW046 SCT060 30/25 A3007 RMK AO2 WSHFT 35 TSB33 PRESRR SLP187

Conditions at: KCOF observed 22 July 2017  19:33 UTC
Temperature: 31.0°C (88°F)
Dewpoint: 25.0°C (77°F) [RH = 71%]
Pressure (altimeter): 30.04 inches Hg (1017.4 mb)
[Sea-level pressure: 1017.7 mb]
Winds: from the SE (140 degrees) at 17 MPH (15 knots; 7.8 m/s)
Visibility: 10 or more miles (16+ km)
Ceiling: at least 12,000 feet AGL
Clouds: sky clear below 12,000 feet AGL
Present Weather: TS  (thunderstorm)
KCOF 221933Z AUTO 14015KT 10SM TS CLR 31/25 A3004 RMK AO2 TSB33 SLP177

Conditions at: KCOF observed 22 July 2017  18:58 UTC
Temperature: 30.9°C (88°F)
Dewpoint: 26.3°C (79°F) [RH = 77%]
Pressure (altimeter): 30.03 inches Hg (1017.0 mb)
[Sea-level pressure: 1017.3 mb]
Winds: from the SE (130 degrees) at 15 MPH (13 knots; 6.8 m/s)
Visibility: 10 or more miles (16+ km)
Ceiling: at least 12,000 feet AGL
Clouds: sky clear below 12,000 feet AGL
Present Weather:
SOME DATA ABOVE MAY BE INACCURATE!!!
"$" is an indication the sensor requires maintenance
KCOF 221858Z AUTO 13013KT 10SM CLR 31/26 A3003 RMK AO2 LTG DSNT NW SLP173 T03090263 $

Conditions at: KCOF observed 22 July 2017  17:58 UTC
Temperature: 31.0°C (88°F)
Dewpoint: 25.9°C (79°F) [RH = 74%]
Pressure (altimeter): 30.07 inches Hg (1018.4 mb)
[Sea-level pressure: 1018.7 mb]
Winds: from the ESE (120 degrees) at 12 MPH (10 knots; 5.2 m/s)
Visibility: 10 or more miles (16+ km)
Ceiling: at least 12,000 feet AGL
Clouds: sky clear below 12,000 feet AGL
Present Weather:
SOME DATA ABOVE MAY BE INACCURATE!!!
"$" is an indication the sensor requires maintenance
KCOF 221758Z AUTO 12010KT 10SM CLR 31/26 A3007 RMK AO2 LTG DSNT W SLP187 60000 T03100259 10312 20258 57011 $

Conditions at: KCOF observed 22 July 2017  16:58 UTC
Temperature: 30.4°C (87°F)
Dewpoint: 25.9°C (79°F) [RH = 77%]
Pressure (altimeter): 30.07 inches Hg (1018.4 mb)
[Sea-level pressure: 1018.7 mb]
Winds: from the SE (130 degrees) at 12 MPH (10 knots; 5.2 m/s)
Visibility: 10 or more miles (16+ km)
Ceiling: at least 12,000 feet AGL
Clouds: sky clear below 12,000 feet AGL
Present Weather:
SOME DATA ABOVE MAY BE INACCURATE!!!
"$" is an indication the sensor requires maintenance
KCOF 221658Z AUTO 13010KT 10SM CLR 30/26 A3007 RMK AO2 SLP187 T03040259 $

Conditions at: KCOF observed 22 July 2017  15:58 UTC
Temperature: 31.0°C (88°F)
Dewpoint: 24.3°C (76°F) [RH = 68%]
Pressure (altimeter): 30.10 inches Hg (1019.4 mb)
[Sea-level pressure: 1019.7 mb]
Winds: from the WSW (240 degrees) at 5 MPH (4 knots; 2.1 m/s)
Visibility: 10 or more miles (16+ km)
Ceiling: at least 12,000 feet AGL
Clouds: sky clear below 12,000 feet AGL
Present Weather:
SOME DATA ABOVE MAY BE INACCURATE!!!
"$" is an indication the sensor requires maintenance
KCOF 221558Z AUTO 24004KT 10SM CLR 31/24 A3010 RMK AO2 DZB09E11 SLP197 P0000 T03100243 $

Conditions at: KCOF observed 22 July 2017  14:58 UTC
Temperature: 29.9°C (86°F)
Dewpoint: 24.7°C (76°F) [RH = 74%]
Pressure (altimeter): 30.10 inches Hg (1019.4 mb)
[Sea-level pressure: 1019.7 mb]
Winds: from the SW (230 degrees) at 6 MPH (5 knots; 2.6 m/s)
Visibility: 10 or more miles (16+ km)
Ceiling: at least 12,000 feet AGL
Clouds: sky clear below 12,000 feet AGL
Present Weather:
SOME DATA ABOVE MAY BE INACCURATE!!!
"$" is an indication the sensor requires maintenance
KCOF 221458Z AUTO 23005KT 10SM CLR 30/25 A3010 RMK AO2 SLP197 T02990247 50005 $

Conditions at: KCOF observed 22 July 2017  13:58 UTC
Temperature: 28.1°C (83°F)
Dewpoint: 25.1°C (77°F) [RH = 84%]
Pressure (altimeter): 30.11 inches Hg (1019.7 mb)
[Sea-level pressure: 1020.0 mb]
Winds: from the SW (220 degrees) at 6 MPH (5 knots; 2.6 m/s)
Visibility: 10 or more miles (16+ km)
Ceiling: at least 12,000 feet AGL
Clouds: sky clear below 12,000 feet AGL
Present Weather:
SOME DATA ABOVE MAY BE INACCURATE!!!
"$" is an indication the sensor requires maintenance
KCOF 221358Z AUTO 22005KT 10SM CLR 28/25 A3011 RMK AO2 SLP200 T02810251 $

Conditions at: KCOF observed 22 July 2017  12:58 UTC
Temperature: 26.7°C (80°F)
Dewpoint: 24.8°C (77°F) [RH = 89%]
Pressure (altimeter): 30.09 inches Hg (1019.0 mb)
[Sea-level pressure: 1019.4 mb]
Winds: from the SSW (210 degrees) at 9 MPH (8 knots; 4.2 m/s)
Visibility: 10 or more miles (16+ km)
Ceiling: at least 12,000 feet AGL
Clouds: sky clear below 12,000 feet AGL
Present Weather:
SOME DATA ABOVE MAY BE INACCURATE!!!
"$" is an indication the sensor requires maintenance
KCOF 221258Z AUTO 21008KT 10SM CLR 27/25 A3009 RMK AO2 SLP194 T02670248 $

Conditions at: KCOF observed 22 July 2017  11:58 UTC
Temperature: 25.7°C (78°F)
Dewpoint: 24.9°C (77°F) [RH = 95%]
Pressure (altimeter): 30.08 inches Hg (1018.7 mb)
[Sea-level pressure: 1019.0 mb]
Winds: from the SW (230 degrees) at 6 MPH (5 knots; 2.6 m/s)
Visibility: 10 or more miles (16+ km)
Ceiling: at least 12,000 feet AGL
Clouds: sky clear below 12,000 feet AGL
Present Weather:
SOME DATA ABOVE MAY BE INACCURATE!!!
"$" is an indication the sensor requires maintenance
KCOF 221158Z AUTO 23005KT 10SM CLR 26/25 A3008 RMK AO2 SLP190 70054 T02570249 10258 20244 52019 $

Conditions at: KCOF observed 22 July 2017  10:58 UTC
Temperature: 24.8°C (77°F)
Dewpoint: 24.5°C (76°F) [RH = 98%]
Pressure (altimeter): 30.06 inches Hg (1018.0 mb)
[Sea-level pressure: 1018.4 mb]
Winds: from the S (180 degrees) at 3 MPH (3 knots; 1.6 m/s)
Visibility: 10 or more miles (16+ km)
Ceiling: at least 12,000 feet AGL
Clouds: sky clear below 12,000 feet AGL
Present Weather:
SOME DATA ABOVE MAY BE INACCURATE!!!
"$" is an indication the sensor requires maintenance
KCOF 221058Z AUTO 18003KT 10SM CLR 25/25 A3006 RMK AO2 SLP184 T02480245 $

Conditions at: KCOF observed 22 July 2017  09:58 UTC
Temperature: 24.5°C (76°F)
Dewpoint: 24.0°C (75°F) [RH = 97%]
Pressure (altimeter): 30.04 inches Hg (1017.4 mb)
[Sea-level pressure: 1017.7 mb]
Winds: from the S (190 degrees) at 6 MPH (5 knots; 2.6 m/s)
Visibility: 10 or more miles (16+ km)
Ceiling: at least 12,000 feet AGL
Clouds: sky clear below 12,000 feet AGL
Present Weather:
SOME DATA ABOVE MAY BE INACCURATE!!!
"$" is an indication the sensor requires maintenance
KCOF 220958Z AUTO 19005KT 10SM CLR 25/24 A3004 RMK AO2 SLP177 T02450240 $

Conditions at: KCOF observed 22 July 2017  08:58 UTC
Temperature: 24.5°C (76°F)
Dewpoint: 23.8°C (75°F) [RH = 96%]
Pressure (altimeter): 30.03 inches Hg (1017.0 mb)
[Sea-level pressure: 1017.3 mb]
Winds: from the SW (220 degrees) at 7 MPH (6 knots; 3.1 m/s)
Visibility: 10 or more miles (16+ km)
Ceiling: at least 12,000 feet AGL
Clouds: sky clear below 12,000 feet AGL
Present Weather:
SOME DATA ABOVE MAY BE INACCURATE!!!
"$" is an indication the sensor requires maintenance
KCOF 220858Z AUTO 22006KT 10SM CLR 25/24 A3003 RMK AO2 SLP173 T02450238 56007 $